Time;durP1;ratioP1;P1;durP2;ratioP2;P2;SDS_P1;SDS_P2;PMS_P1;PMS_P2;Temp;Humidity;BMP_temperature;BMP_pressure;BME280_temperature;BME280_humidity;BME280_pressure;Samples;Min_cycle;Max_cycle;Signal;HPM_P1;HPM_P2
2023/03/17 00:00:42;;;;;;;;;;;;;;;-0.59;79.45;102185.77;107657;1256;65770;-89
2023/03/17 00:03:28;;;;;;;;;;;;;;;-0.52;79.34;102186.48;107793;1256;124681;-89
2023/03/17 00:05:57;;;;;;;;;;;;;;;-0.44;79.39;102184.58;107872;1254;61203;-88
2023/03/17 00:08:26;;;;;;;;;;;;;;;-0.39;79.23;102181.78;107752;1254;125039;-88
2023/03/17 00:10:53;;;;;;;;;;;;;;;-0.32;79.10;102181.22;107748;1259;72864;-88
2023/03/17 00:13:22;;;;;;;;;;;;;;;-0.25;79.14;102173.01;108042;1256;65613;-88
2023/03/17 00:15:55;;;;;;;;;;;;;;;-0.16;79.05;102180.04;107777;1257;124972;-88
2023/03/17 00:18:24;;;;;;;;;;;;;;;-0.08;79.02;102180.41;107810;1256;60365;-88
2023/03/17 00:20:58;;;;;;;;;;;;;;;-0.04;79.01;102180.96;107902;1256;60167;-87
2023/03/17 00:23:30;;;;;;;;;;;;;;;0.01;78.89;102172.63;108095;1257;74690;-87
2023/03/17 00:25:58;;;;;;;;;;;;;;;0.06;78.75;102168.74;108062;1254;68113;-87
2023/03/17 00:28:26;;;;;;;;;;;;;;;0.08;78.65;102167.23;107705;1257;124478;-87
2023/03/17 00:31:28;;;;;;;;;;;;;;;0.11;78.41;102163.29;107734;1254;60275;-87
2023/03/17 00:33:55;;;;;;;;;;;;;;;0.15;78.49;102168.84;107329;1254;124550;-88
2023/03/17 00:36:23;;;;;;;;;;;;;;;0.18;78.37;102165.54;107645;1257;73180;-87
2023/03/17 00:42:36;;;;;;;;;;;;;;;0.25;78.37;102158.20;107567;1254;71729;-88
2023/03/17 00:45:03;;;;;;;;;;;;;;;0.28;78.34;102160.19;107473;1256;124452;-88
2023/03/17 00:47:42;;;;;;;;;;;;;;;0.28;78.18;102157.99;107325;1255;61760;-88
2023/03/17 00:50:25;;;;;;;;;;;;;;;0.30;78.21;102155.83;107180;1256;74699;-88
2023/03/17 00:52:55;;;;;;;;;;;;;;;0.31;78.22;102155.77;107505;1257;67146;-88
2023/03/17 00:55:22;;;;;;;;;;;;;;;0.34;78.29;102162.63;107490;1255;73723;-88
2023/03/17 00:57:49;;;;;;;;;;;;;;;0.35;78.24;102165.81;107519;1254;124593;-88
2023/03/17 01:00:18;;;;;;;;;;;;;;;0.35;78.04;102164.08;107461;1261;61295;-89
2023/03/17 01:03:17;;;;;;;;;;;;;;;0.36;78.24;102166.61;107359;1254;124588;-91
2023/03/17 01:05:45;;;;;;;;;;;;;;;0.41;78.27;102173.23;107721;1255;65954;-90
2023/03/17 01:08:18;;;;;;;;;;;;;;;0.42;78.04;102172.10;107763;1255;71405;-91
2023/03/17 01:10:45;;;;;;;;;;;;;;;0.43;78.03;102174.77;107851;1254;61222;-90
2023/03/17 01:13:13;;;;;;;;;;;;;;;0.44;78.14;102169.58;108110;1254;61141;-91
2023/03/17 01:16:07;;;;;;;;;;;;;;;0.48;77.98;102167.46;107948;1254;125052;-93
2023/03/17 01:19:13;;;;;;;;;;;;;;;0.50;78.16;102160.09;107406;1263;66492;-93
2023/03/17 01:21:52;;;;;;;;;;;;;;;0.53;78.08;102159.27;106982;1264;124594;-92
2023/03/17 01:24:19;;;;;;;;;;;;;;;0.56;78.06;102160.02;107107;1264;60617;-91
2023/03/17 01:27:00;;;;;;;;;;;;;;;0.55;77.78;102154.45;107041;1264;124193;-92
2023/03/17 01:29:33;;;;;;;;;;;;;;;0.54;77.74;102149.67;107384;1264;73149;-91
2023/03/17 01:32:08;;;;;;;;;;;;;;;0.56;77.82;102146.98;107198;1265;65608;-91
2023/03/17 01:34:35;;;;;;;;;;;;;;;0.59;77.94;102142.88;107133;1265;123573;-92
2023/03/17 01:37:02;;;;;;;;;;;;;;;0.59;77.84;102142.03;107371;1263;61196;-93
2023/03/17 01:39:29;;;;;;;;;;;;;;;0.63;78.12;102141.98;107295;1264;123739;-92
2023/03/17 01:42:00;;;;;;;;;;;;;;;0.63;77.79;102140.82;107229;1264;75048;-92
2023/03/17 01:44:30;;;;;;;;;;;;;;;0.61;77.76;102142.31;107269;1264;123055;-92
2023/03/17 01:46:59;;;;;;;;;;;;;;;0.53;77.44;102139.45;107500;1265;72424;-92
2023/03/17 01:49:29;;;;;;;;;;;;;;;0.44;77.45;102134.86;107615;1264;62247;-91
2023/03/17 01:52:21;;;;;;;;;;;;;;;0.36;77.35;102131.91;107621;1265;124012;-92
2023/03/17 01:57:52;;;;;;;;;;;;;;;0.29;77.53;102133.85;107713;1256;123857;-92
2023/03/17 02:00:52;;;;;;;;;;;;;;;0.29;77.68;102137.66;107542;1256;72451;-93
2023/03/17 02:03:27;;;;;;;;;;;;;;;0.29;77.63;102133.13;107335;1255;124412;-92
2023/03/17 02:06:00;;;;;;;;;;;;;;;0.27;77.80;102132.44;107570;1257;60578;-93
2023/03/17 02:08:35;;;;;;;;;;;;;;;0.26;77.66;102132.54;107463;1256;75673;-92
2023/03/17 02:11:02;;;;;;;;;;;;;;;0.22;77.68;102129.39;107531;1256;66797;-93
2023/03/17 02:13:45;;;;;;;;;;;;;;;0.19;77.70;102125.79;107677;1256;72380;-93
2023/03/17 02:16:13;;;;;;;;;;;;;;;0.15;77.61;102122.80;107806;1259;59433;-92
2023/03/17 02:18:40;;;;;;;;;;;;;;;0.13;77.89;102128.86;108037;1256;59559;-91
2023/03/17 02:21:26;;;;;;;;;;;;;;;0.15;77.84;102125.76;107660;1257;74711;-90
2023/03/17 02:23:58;;;;;;;;;;;;;;;0.17;77.96;102122.48;107736;1256;66438;-91
2023/03/17 02:26:40;;;;;;;;;;;;;;;0.18;78.01;102117.85;107658;1256;123906;-91
2023/03/17 02:29:09;;;;;;;;;;;;;;;0.16;78.04;102115.83;108000;1256;61336;-92
2023/03/17 02:31:37;;;;;;;;;;;;;;;0.18;77.90;102114.06;107705;1262;61306;-92
2023/03/17 02:34:04;;;;;;;;;;;;;;;0.18;78.02;102108.00;107815;1256;123062;-91
2023/03/17 02:36:31;;;;;;;;;;;;;;;0.19;78.00;102108.98;107861;1255;67954;-91
2023/03/17 02:39:01;;;;;;;;;;;;;;;0.18;78.01;102104.08;107798;1256;124129;-90
2023/03/17 02:41:30;;;;;;;;;;;;;;;0.18;77.97;102102.67;107295;1256;60502;-88
2023/03/17 02:44:00;;;;;;;;;;;;;;;0.16;78.04;102096.46;107214;1254;60765;-87
2023/03/17 02:46:29;;;;;;;;;;;;;;;0.16;77.96;102095.61;107674;1256;124884;-87
2023/03/17 02:49:05;;;;;;;;;;;;;;;0.11;77.89;102095.83;107639;1257;68143;-94
2023/03/17 02:54:53;;;;;;;;;;;;;;;0.02;77.87;102104.91;107613;1254;61232;-91
2023/03/17 02:57:31;;;;;;;;;;;;;;;0.05;78.20;102107.02;107277;1254;123454;-92
2023/03/17 03:00:01;;;;;;;;;;;;;;;0.08;78.06;102110.95;107392;1256;74720;-92
2023/03/17 03:02:30;;;;;;;;;;;;;;;0.13;78.18;102105.66;107432;1254;65597;-91
2023/03/17 03:05:04;;;;;;;;;;;;;;;0.17;78.19;102105.73;107552;1256;71125;-93
2023/03/17 03:07:39;;;;;;;;;;;;;;;0.23;78.14;102111.00;107762;1256;61199;-93
2023/03/17 03:10:43;;;;;;;;;;;;;;;0.24;78.19;102110.41;107604;1257;124762;-92
2023/03/17 03:13:23;;;;;;;;;;;;;;;0.23;77.98;102109.34;107704;1256;73558;-89
2023/03/17 03:15:50;;;;;;;;;;;;;;;0.24;78.06;102107.13;108206;1257;124554;-90
2023/03/17 03:18:19;;;;;;;;;;;;;;;0.23;78.18;102100.52;107847;1255;72349;-90
2023/03/17 03:20:56;;;;;;;;;;;;;;;0.26;77.87;102098.48;107631;1254;124588;-90
2023/03/17 03:23:29;;;;;;;;;;;;;;;0.27;77.90;102097.91;107976;1256;59954;-90
2023/03/17 03:25:56;;;;;;;;;;;;;;;0.28;77.90;102097.00;107984;1256;73702;-90
2023/03/17 03:28:31;;;;;;;;;;;;;;;0.32;78.16;102102.06;107749;1254;124741;-90
2023/03/17 03:31:05;;;;;;;;;;;;;;;0.36;78.08;102112.41;107758;1254;72679;-90
2023/03/17 03:33:33;;;;;;;;;;;;;;;0.42;78.20;102115.33;107633;1257;124977;-89
2023/03/17 03:36:01;;;;;;;;;;;;;;;0.46;78.01;102110.78;107709;1256;59430;-90
2023/03/17 03:38:51;;;;;;;;;;;;;;;0.50;77.98;102108.23;107866;1254;74687;-90
2023/03/17 03:41:32;;;;;;;;;;;;;;;0.57;78.16;102116.23;107518;1259;67152;-90
2023/03/17 03:44:17;;;;;;;;;;;;;;;0.61;78.01;102111.54;107420;1255;72577;-90
2023/03/17 03:46:49;;;;;;;;;;;;;;;0.59;77.72;102114.18;107383;1257;124843;-90
2023/03/17 03:49:23;;;;;;;;;;;;;;;0.61;77.91;102113.69;107393;1255;60045;-90
2023/03/17 03:52:16;;;;;;;;;;;;;;;0.65;78.08;102113.13;107357;1254;124486;-90
2023/03/17 03:55:22;;;;;;;;;;;;;;;0.64;77.78;102109.78;107106;1263;68195;-88
2023/03/17 03:58:09;;;;;;;;;;;;;;;0.64;77.82;102113.41;107214;1263;124506;-88
2023/03/17 04:00:36;;;;;;;;;;;;;;;0.62;77.69;102117.19;107121;1264;62137;-88
2023/03/17 04:03:03;;;;;;;;;;;;;;;0.65;77.91;102120.73;107081;1265;124697;-88
2023/03/17 04:19:20;;;;;;;;;;;;;;;0.57;77.54;102100.73;107338;1263;60439;-92
2023/03/17 04:29:19;;;;;;;;;;;;;;;0.57;77.75;102087.61;107032;1267;71949;-91
2023/03/17 04:31:53;;;;;;;;;;;;;;;0.57;77.82;102086.63;106590;1261;59507;-90
2023/03/17 04:34:20;;;;;;;;;;;;;;;0.57;77.94;102080.54;106940;1262;60332;-87
2023/03/17 04:37:06;;;;;;;;;;;;;;;0.58;77.70;102083.58;106974;1262;74690;-87
2023/03/17 04:39:34;;;;;;;;;;;;;;;0.55;77.80;102083.11;106978;1262;124262;-87
2023/03/17 04:42:01;;;;;;;;;;;;;;;0.52;77.85;102082.52;107007;1263;72672;-88
2023/03/17 04:44:47;;;;;;;;;;;;;;;0.53;77.88;102079.65;106972;1261;59291;-87
2023/03/17 04:47:19;;;;;;;;;;;;;;;0.56;78.06;102091.14;106890;1265;123522;-84
2023/03/17 04:49:46;;;;;;;;;;;;;;;0.58;78.05;102085.84;107245;1264;74401;-82
2023/03/17 04:52:13;;;;;;;;;;;;;;;0.59;77.90;102079.66;107124;1262;124652;-83
2023/03/17 04:54:46;;;;;;;;;;;;;;;0.54;77.84;102072.84;107264;1262;71391;-88
2023/03/17 04:57:13;;;;;;;;;;;;;;;0.50;77.82;102075.58;107186;1262;61374;-88
2023/03/17 04:59:45;;;;;;;;;;;;;;;0.49;77.95;102075.98;107893;1255;61150;-87
2023/03/17 05:02:12;;;;;;;;;;;;;;;0.48;78.10;102077.98;108523;1256;74552;-89
2023/03/17 05:04:39;;;;;;;;;;;;;;;0.45;77.97;102081.86;107823;1257;124126;-89
2023/03/17 05:07:06;;;;;;;;;;;;;;;0.38;77.86;102083.89;107849;1259;72267;-87
2023/03/17 05:09:34;;;;;;;;;;;;;;;0.35;78.12;102082.80;107914;1255;124960;-87
2023/03/17 05:12:03;;;;;;;;;;;;;;;0.36;78.07;102083.91;107933;1258;59475;-86
2023/03/17 05:14:37;;;;;;;;;;;;;;;0.38;78.22;102084.92;107820;1256;73098;-86
2023/03/17 05:17:05;;;;;;;;;;;;;;;0.41;78.27;102088.27;107503;1262;124581;-86
2023/03/17 05:19:59;;;;;;;;;;;;;;;0.45;78.54;102089.53;107701;1256;72778;-88
2023/03/17 05:22:48;;;;;;;;;;;;;;;0.52;78.50;102083.86;107661;1257;124438;-87
2023/03/17 05:26:14;;;;;;;;;;;;;;;0.59;78.56;102082.39;107400;1256;59963;-88
2023/03/17 05:28:59;;;;;;;;;;;;;;;0.63;78.43;102078.61;107388;1259;124447;-88
2023/03/17 05:34:54;;;;;;;;;;;;;;;0.63;78.15;102074.14;107361;1257;123347;-86
2023/03/17 05:37:28;;;;;;;;;;;;;;;0.62;78.22;102069.69;107078;1260;61410;-85
2023/03/17 05:39:55;;;;;;;;;;;;;;;0.63;78.34;102073.57;107198;1262;124779;-89
2023/03/17 05:42:24;;;;;;;;;;;;;;;0.67;78.40;102074.45;107332;1256;75543;-84
2023/03/17 05:44:58;;;;;;;;;;;;;;;0.70;78.55;102072.52;107506;1256;65891;-85
2023/03/17 05:47:52;;;;;;;;;;;;;;;0.76;78.32;102070.36;107351;1258;74150;-82
2023/03/17 05:50:23;;;;;;;;;;;;;;;0.80;78.49;102068.16;107570;1259;61267;-83
2023/03/17 05:52:51;;;;;;;;;;;;;;;0.86;78.48;102067.61;107105;1258;125057;-82
2023/03/17 05:55:21;;;;;;;;;;;;;;;0.94;78.57;102067.29;107229;1257;73373;-81
2023/03/17 05:57:48;;;;;;;;;;;;;;;1.05;78.72;102064.90;107314;1257;124788;-82
2023/03/17 06:00:15;;;;;;;;;;;;;;;1.15;78.66;102066.02;107347;1258;71764;-81
2023/03/17 06:02:44;;;;;;;;;;;;;;;1.22;78.69;102072.41;107268;1257;60925;-82
2023/03/17 06:05:15;;;;;;;;;;;;;;;1.30;78.46;102070.27;107228;1262;125143;-83
2023/03/17 06:07:51;;;;;;;;;;;;;;;1.36;78.46;102065.60;107390;1255;73101;-84
2023/03/17 06:10:27;;;;;;;;;;;;;;;1.42;78.52;102067.98;107164;1257;124483;-83
2023/03/17 06:12:57;;;;;;;;;;;;;;;1.45;78.16;102074.80;107250;1257;72505;-82
2023/03/17 06:15:32;;;;;;;;;;;;;;;1.53;78.36;102079.63;107340;1259;124654;-84
2023/03/17 06:18:18;;;;;;;;;;;;;;;1.64;78.28;102085.49;107491;1258;62214;-90
2023/03/17 06:20:45;;;;;;;;;;;;;;;1.68;78.23;102083.47;107424;1257;73055;-90
2023/03/17 06:23:14;;;;;;;;;;;;;;;1.72;77.84;102085.35;107536;1263;123869;-91
2023/03/17 06:25:41;;;;;;;;;;;;;;;1.74;77.86;102085.83;107376;1258;73930;-83
2023/03/17 06:28:30;;;;;;;;;;;;;;;1.80;78.02;102084.19;107181;1257;122988;-90
2023/03/17 06:30:57;;;;;;;;;;;;;;;1.89;77.91;102082.86;107284;1263;61218;-89
2023/03/17 06:33:26;;;;;;;;;;;;;;;1.98;78.11;102077.73;107402;1257;124418;-91
2023/03/17 06:36:00;;;;;;;;;;;;;;;2.10;78.13;102075.06;107495;1256;66102;-89
2023/03/17 06:38:33;;;;;;;;;;;;;;;2.22;78.19;102069.66;107696;1258;72708;-90
2023/03/17 06:41:09;;;;;;;;;;;;;;;2.34;77.93;102063.46;107641;1257;122816;-92
2023/03/17 06:44:03;;;;;;;;;;;;;;;2.42;77.74;102059.26;107517;1257;60443;-92
2023/03/17 06:46:31;;;;;;;;;;;;;;;2.62;77.93;102065.00;107696;1256;123886;-90
2023/03/17 06:49:00;;;;;;;;;;;;;;;2.80;77.99;102063.58;107746;1259;66842;-82
2023/03/17 06:51:28;;;;;;;;;;;;;;;2.96;77.76;102057.98;107526;1257;124756;-81
2023/03/17 06:53:55;;;;;;;;;;;;;;;3.07;77.53;102051.23;107848;1263;60514;-82
2023/03/17 06:56:22;;;;;;;;;;;;;;;3.19;77.43;102057.54;107634;1261;61737;-82
2023/03/17 06:58:52;;;;;;;;;;;;;;;3.31;77.30;102067.98;107362;1258;124999;-82
2023/03/17 07:01:19;;;;;;;;;;;;;;;3.43;77.23;102075.47;107511;1257;65855;-82
2023/03/17 07:03:47;;;;;;;;;;;;;;;3.51;77.10;102077.11;107658;1257;124730;-82
2023/03/17 07:06:13;;;;;;;;;;;;;;;3.55;76.82;102083.11;107710;1256;60894;-82
2023/03/17 07:08:41;;;;;;;;;;;;;;;3.58;76.73;102083.36;107493;1257;59990;-82
2023/03/17 07:11:08;;;;;;;;;;;;;;;3.65;76.72;102085.77;107219;1257;125049;-82
2023/03/17 07:13:37;;;;;;;;;;;;;;;3.76;76.91;102084.64;107506;1257;66837;-82
2023/03/17 07:16:05;;;;;;;;;;;;;;;3.80;76.58;102085.16;107472;1259;124734;-82
2023/03/17 07:18:33;;;;;;;;;;;;;;;3.85;76.54;102085.20;107357;1257;61269;-82
2023/03/17 07:21:03;;;;;;;;;;;;;;;3.97;76.51;102084.96;107323;1256;124596;-83
2023/03/17 07:23:30;;;;;;;;;;;;;;;4.07;76.56;102080.85;107254;1258;75206;-82
2023/03/17 07:26:01;;;;;;;;;;;;;;;4.17;76.36;102082.61;107438;1255;65728;-83
2023/03/17 07:28:28;;;;;;;;;;;;;;;4.23;76.21;102070.40;107568;1256;124424;-82
2023/03/17 07:30:56;;;;;;;;;;;;;;;4.25;76.14;102069.14;107642;1259;59256;-83
2023/03/17 07:33:24;;;;;;;;;;;;;;;4.32;76.21;102070.99;107093;1258;124103;-83
2023/03/17 07:36:05;;;;;;;;;;;;;;;4.41;76.10;102065.23;107258;1256;75083;-83
2023/03/17 07:38:34;;;;;;;;;;;;;;;4.48;76.00;102060.00;107537;1256;67030;-83
2023/03/17 07:41:02;;;;;;;;;;;;;;;4.58;75.96;102056.67;107515;1257;124262;-82
2023/03/17 07:43:30;;;;;;;;;;;;;;;4.68;75.85;102056.20;107725;1257;60441;-82
2023/03/17 07:46:02;;;;;;;;;;;;;;;4.69;75.62;102053.60;107529;1256;123955;-82
2023/03/17 07:48:30;;;;;;;;;;;;;;;4.73;75.67;102049.17;107430;1257;75364;-82
2023/03/17 07:50:58;;;;;;;;;;;;;;;4.76;75.44;102047.70;107501;1259;66122;-83
2023/03/17 07:53:34;;;;;;;;;;;;;;;4.78;75.34;102044.00;107310;1261;123598;-83
2023/03/17 07:56:01;;;;;;;;;;;;;;;4.78;75.18;102042.80;107500;1258;60354;-82
2023/03/17 07:58:28;;;;;;;;;;;;;;;4.75;75.07;102042.53;107491;1255;125031;-82
2023/03/17 08:00:56;;;;;;;;;;;;;;;4.76;75.21;102043.86;108151;1259;74320;-82
2023/03/17 08:03:23;;;;;;;;;;;;;;;4.80;75.22;102044.48;107379;1263;66784;-82
2023/03/17 08:05:56;;;;;;;;;;;;;;;4.86;75.19;102047.00;107649;1257;70655;-82
2023/03/17 08:08:31;;;;;;;;;;;;;;;4.93;75.13;102039.47;107406;1258;60483;-82
2023/03/17 08:11:10;;;;;;;;;;;;;;;5.00;74.99;102039.02;107261;1257;124744;-82
2023/03/17 08:13:37;;;;;;;;;;;;;;;5.06;74.96;102039.09;107457;1257;74732;-82
2023/03/17 08:16:04;;;;;;;;;;;;;;;5.17;75.00;102037.91;107630;1257;124657;-82
2023/03/17 08:18:34;;;;;;;;;;;;;;;5.27;74.92;102039.49;107693;1257;72708;-82
2023/03/17 08:21:08;;;;;;;;;;;;;;;5.36;74.75;102032.59;107208;1257;61251;-82
2023/03/17 08:23:36;;;;;;;;;;;;;;;5.44;74.67;102023.88;107342;1257;59436;-82
2023/03/17 08:26:03;;;;;;;;;;;;;;;5.53;74.55;102026.17;107526;1257;75230;-82
2023/03/17 08:28:31;;;;;;;;;;;;;;;5.57;74.42;102016.88;107160;1260;123845;-82
2023/03/17 08:31:12;;;;;;;;;;;;;;;5.62;74.27;102021.80;107419;1255;71430;-82
2023/03/17 08:33:46;;;;;;;;;;;;;;;5.71;74.33;102019.35;107299;1256;123965;-82
2023/03/17 08:36:15;;;;;;;;;;;;;;;5.83;74.28;102015.08;107454;1257;61770;-82
2023/03/17 08:38:49;;;;;;;;;;;;;;;5.98;74.20;102008.27;107387;1257;74753;-82
2023/03/17 08:41:28;;;;;;;;;;;;;;;6.10;73.86;101996.27;107486;1257;123969;-82
2023/03/17 08:44:07;;;;;;;;;;;;;;;6.16;73.76;101989.33;107589;1257;71418;-82
2023/03/17 08:46:48;;;;;;;;;;;;;;;6.30;73.48;101986.17;107420;1260;123715;-82
2023/03/17 08:49:49;;;;;;;;;;;;;;;;;;;;;
2023/03/17 08:52:19;;;;;;;;;;;;;;;6.51;73.38;101984.55;107665;1256;124263;-83
2023/03/17 08:54:48;;;;;;;;;;;;;;;6.66;73.30;101983.15;107425;1257;66782;-83
2023/03/17 08:57:16;;;;;;;;;;;;;;;6.78;73.05;101984.62;107514;1257;72423;-83
2023/03/17 08:59:50;;;;;;;;;;;;;;;6.83;72.69;101979.80;107600;1257;60826;-84
2023/03/17 09:02:17;;;;;;;;;;;;;;;6.81;72.27;101979.00;107517;1256;61075;-84
2023/03/17 09:04:44;;;;;;;;;;;;;;;6.77;72.01;101977.02;107441;1256;124628;-83
2023/03/17 09:07:11;;;;;;;;;;;;;;;6.76;72.09;101974.01;107413;1257;65752;-83
2023/03/17 09:09:38;;;;;;;;;;;;;;;6.85;72.03;101977.34;107186;1256;125312;-84
2023/03/17 09:12:18;;;;;;;;;;;;;;;6.86;71.75;101977.57;107373;1257;61077;-83
2023/03/17 09:18:19;;;;;;;;;;;;;;;;;;;;;
2023/03/17 09:20:49;;;;;;;;;;;;;;;6.86;71.44;101957.49;107313;1257;66824;-83
2023/03/17 09:24:23;;;;;;;;;;;;;;;6.94;71.41;101956.23;107469;1257;124119;-83
2023/03/17 09:26:37;;;;;;;;;;;;;;;7.11;71.44;101959.64;107330;1256;61339;-84
2023/03/17 09:29:11;;;;;;;;;;;;;;;7.27;71.39;101958.52;107533;1256;123927;-83
2023/03/17 09:31:46;;;;;;;;;;;;;;;7.41;71.17;101956.70;107227;1256;74656;-83
2023/03/17 09:34:13;;;;;;;;;;;;;;;7.56;71.04;101957.17;106986;1256;124188;-83
2023/03/17 09:36:47;;;;;;;;;;;;;;;7.68;70.84;101953.84;107465;1256;72604;-84
2023/03/17 09:39:15;;;;;;;;;;;;;;;7.81;70.66;101948.10;106474;1257;1426458;-84
2023/03/17 09:41:44;;;;;;;;;;;;;;;7.98;70.66;101946.06;107635;1257;124257;-84
2023/03/17 09:44:37;;;;;;;;;;;;;;;8.17;70.45;101947.23;107507;1257;74521;-84
2023/03/17 09:47:24;;;;;;;;;;;;;;;8.18;70.02;101944.33;107176;1262;123986;-82
2023/03/17 09:50:03;;;;;;;;;;;;;;;8.12;69.60;101950.31;107254;1263;71362;-82
2023/03/17 09:52:31;;;;;;;;;;;;;;;8.16;69.57;101943.88;106855;1262;123963;-82
2023/03/17 09:55:11;;;;;;;;;;;;;;;8.23;69.45;101944.08;107170;1262;59376;-82
2023/03/17 09:57:39;;;;;;;;;;;;;;;8.26;69.26;101945.10;107238;1263;124233;-82
2023/03/17 10:00:15;;;;;;;;;;;;;;;8.27;69.02;101939.91;107508;1263;67082;-83
2023/03/17 10:03:02;;;;;;;;;;;;;;;8.26;68.86;101933.56;107153;1263;71463;-90
2023/03/17 10:05:30;;;;;;;;;;;;;;;8.27;68.81;101923.99;107080;1263;124114;-83
2023/03/17 10:08:12;;;;;;;;;;;;;;;8.30;68.65;101919.61;107171;1262;60900;-91
2023/03/17 10:10:49;;;;;;;;;;;;;;;8.40;68.66;101918.06;107160;1262;124110;-90
2023/03/17 10:13:40;;;;;;;;;;;;;;;8.47;68.50;101907.79;107187;1263;65467;-90
2023/03/17 10:16:17;;;;;;;;;;;;;;;8.59;68.42;101907.70;107082;1262;124070;-91
2023/03/17 10:18:47;;;;;;;;;;;;;;;8.71;68.40;101898.52;107342;1262;61263;-91
2023/03/17 10:21:15;;;;;;;;;;;;;;;8.91;68.38;101889.54;107438;1263;61211;-90
2023/03/17 10:23:42;;;;;;;;;;;;;;;9.03;67.94;101876.45;107109;1258;123973;-89
2023/03/17 10:26:18;;;;;;;;;;;;;;;9.03;67.32;101864.58;107646;1256;67058;-89
2023/03/17 10:28:47;;;;;;;;;;;;;;;9.01;67.10;101852.55;107491;1257;123929;-89
2023/03/17 10:31:17;;;;;;;;;;;;;;;9.04;66.86;101844.15;107823;1256;60483;-90
2023/03/17 10:33:52;;;;;;;;;;;;;;;9.09;66.84;101842.82;107785;1257;124125;-89
2023/03/17 10:36:41;;;;;;;;;;;;;;;9.23;66.78;101839.46;108210;1257;75589;-90
2023/03/17 10:39:10;;;;;;;;;;;;;;;9.39;66.54;101842.48;107477;1263;66351;-89
2023/03/17 10:42:00;;;;;;;;;;;;;;;9.47;66.11;101831.61;107157;1263;124128;-90
2023/03/17 10:44:44;;;;;;;;;;;;;;;9.64;66.13;101828.90;107417;1261;60514;-90
2023/03/17 10:47:30;;;;;;;;;;;;;;;9.68;65.57;101824.19;107174;1263;124093;-89
2023/03/17 10:50:12;;;;;;;;;;;;;;;9.59;65.10;101818.84;107656;1262;73409;-90
2023/03/17 10:52:40;;;;;;;;;;;;;;;9.61;64.92;101813.88;107121;1263;124485;-91
2023/03/17 10:55:16;;;;;;;;;;;;;;;9.62;64.81;101807.45;107347;1263;71844;-91
2023/03/17 10:58:12;;;;;;;;;;;;;;;9.67;64.55;101799.45;107338;1262;124339;-91
2023/03/17 11:00:40;;;;;;;;;;;;;;;9.81;64.56;101794.27;107011;1270;60187;-83
2023/03/17 11:06:36;;;;;;;;;;;;;;;9.91;64.16;101794.38;106637;1270;66020;-83
2023/03/17 11:09:09;;;;;;;;;;;;;;;9.98;64.12;101789.25;106487;1270;72435;-91
2023/03/17 11:11:45;;;;;;;;;;;;;;;10.10;63.85;101785.73;106386;1269;124005;-83
2023/03/17 11:14:14;;;;;;;;;;;;;;;10.17;63.46;101787.60;106912;1270;61359;-89
2023/03/17 11:16:59;;;;;;;;;;;;;;;10.22;63.24;101788.00;106505;1264;124462;-90
2023/03/17 11:19:53;;;;;;;;;;;;;;;10.38;63.34;101790.27;106896;1264;66949;-91
2023/03/17 11:26:15;;;;;;;;;;;;;;;10.52;62.45;101772.10;106674;1265;61168;-90
2023/03/17 11:28:49;;;;;;;;;;;;;;;10.49;61.92;101778.33;106550;1264;124138;-83
2023/03/17 11:31:26;;;;;;;;;;;;;;;10.49;61.86;101771.96;106771;1263;74721;-84
2023/03/17 11:34:12;;;;;;;;;;;;;;;10.55;61.65;101765.19;106687;1264;124870;-84
2023/03/17 11:36:49;;;;;;;;;;;;;;;10.56;61.30;101758.05;106849;1265;72781;-83
2023/03/17 11:39:19;;;;;;;;;;;;;;;10.55;61.08;101753.80;107474;1256;60909;-84
2023/03/17 11:42:15;;;;;;;;;;;;;;;10.46;60.84;101746.59;107606;1255;124487;-85
2023/03/17 11:44:47;;;;;;;;;;;;;;;10.43;60.96;101746.11;107399;1256;74665;-85
2023/03/17 11:47:14;;;;;;;;;;;;;;;10.46;60.88;101748.69;107353;1256;124125;-89
2023/03/17 11:50:01;;;;;;;;;;;;;;;10.42;60.63;101749.06;107241;1256;71314;-89
2023/03/17 11:52:45;;;;;;;;;;;;;;;10.35;60.45;101741.75;107185;1256;124209;-87
2023/03/17 11:58:34;;;;;;;;;;;;;;;10.47;60.37;101748.23;107494;1254;124026;-87
2023/03/17 12:01:07;;;;;;;;;;;;;;;10.42;60.20;101744.69;107356;1257;67333;-89
2023/03/17 12:03:48;;;;;;;;;;;;;;;10.38;59.91;101746.25;107368;1257;70965;-86
2023/03/17 12:06:37;;;;;;;;;;;;;;;10.35;59.83;101744.90;107567;1257;61356;-87
2023/03/17 12:09:23;;;;;;;;;;;;;;;10.32;59.62;101748.12;107549;1255;61436;-89
2023/03/17 12:12:04;;;;;;;;;;;;;;;10.33;59.80;101740.26;107406;1260;124106;-86
2023/03/17 12:14:39;;;;;;;;;;;;;;;10.37;59.57;101734.28;107510;1256;66828;-91
2023/03/17 12:27:22;;;;;;;;;;;;;;;10.45;58.89;101728.81;107635;1255;74719;-88
2023/03/17 12:30:21;;;;;;;;;;;;;;;10.40;58.64;101729.48;107529;1256;123915;-84
2023/03/17 12:33:01;;;;;;;;;;;;;;;10.28;58.43;101730.02;107190;1257;72486;-83
2023/03/17 12:35:30;;;;;;;;;;;;;;;10.22;58.43;101726.43;107290;1256;124501;-84
2023/03/17 12:37:58;;;;;;;;;;;;;;;10.28;58.48;101738.60;107328;1256;61401;-84
2023/03/17 12:40:33;;;;;;;;;;;;;;;10.27;58.23;101746.64;107583;1255;124325;-84
2023/03/17 12:43:13;;;;;;;;;;;;;;;10.26;58.10;101751.33;107676;1256;67361;-85
2023/03/17 12:45:58;;;;;;;;;;;;;;;10.24;57.90;101754.06;107252;1255;71884;-85
2023/03/17 12:48:41;;;;;;;;;;;;;;;10.27;57.91;101750.32;107290;1256;59361;-84
2023/03/17 12:51:15;;;;;;;;;;;;;;;10.30;57.85;101738.74;107198;1255;61305;-84
2023/03/17 12:53:43;;;;;;;;;;;;;;;10.19;57.56;101737.37;107173;1256;124148;-85
2023/03/17 12:56:32;;;;;;;;;;;;;;;10.07;57.48;101731.96;107486;1256;67117;-83
2023/03/17 12:59:18;;;;;;;;;;;;;;;10.02;57.52;101731.20;107175;1256;124405;-84
2023/03/17 13:01:56;;;;;;;;;;;;;;;10.02;57.64;101735.77;107524;1256;59255;-84
2023/03/17 13:04:25;;;;;;;;;;;;;;;10.04;57.58;101742.00;107170;1257;125063;-84
2023/03/17 13:07:13;;;;;;;;;;;;;;;10.01;57.44;101739.21;107524;1256;73372;-89
2023/03/17 13:09:57;;;;;;;;;;;;;;;10.00;57.36;101736.89;107514;1256;67051;-88
2023/03/17 13:12:44;;;;;;;;;;;;;;;10.00;57.30;101733.77;107422;1256;72789;-87
2023/03/17 13:15:37;;;;;;;;;;;;;;;9.99;57.26;101724.59;107646;1256;61459;-87
2023/03/17 13:18:17;;;;;;;;;;;;;;;9.93;57.17;101718.54;107801;1256;124507;-86
2023/03/17 13:21:01;;;;;;;;;;;;;;;9.80;56.93;101708.01;107716;1257;73582;-87
2023/03/17 13:23:48;;;;;;;;;;;;;;;9.66;57.03;101708.95;107442;1259;123947;-86
2023/03/17 13:26:22;;;;;;;;;;;;;;;9.52;56.95;101708.33;107695;1256;72721;-86
2023/03/17 13:28:49;;;;;;;;;;;;;;;9.36;56.65;101699.58;107546;1256;123899;-88
2023/03/17 13:31:29;;;;;;;;;;;;;;;9.24;56.79;101697.42;107453;1256;60311;-87
2023/03/17 13:34:01;;;;;;;;;;;;;;;9.14;56.79;101697.00;107468;1256;124167;-87
2023/03/17 13:37:04;;;;;;;;;;;;;;;9.03;56.83;101687.75;107537;1256;66371;-90
2023/03/17 13:39:45;;;;;;;;;;;;;;;8.95;57.04;101681.77;107599;1256;72382;-91
2023/03/17 13:42:27;;;;;;;;;;;;;;;8.94;57.09;101677.20;107174;1256;124079;-90
2023/03/17 13:52:03;;;;;;;;;;;;;;;8.89;56.94;101654.17;107348;1256;67152;-91
2023/03/17 13:54:46;;;;;;;;;;;;;;;8.87;57.07;101641.13;107333;1256;71075;-93
2023/03/17 13:57:23;;;;;;;;;;;;;;;8.87;57.01;101626.40;107278;1256;61017;-88
2023/03/17 13:59:54;;;;;;;;;;;;;;;8.89;57.00;101629.15;107213;1256;124172;-89
2023/03/17 14:02:35;;;;;;;;;;;;;;;8.92;57.03;101629.48;107124;1257;75786;-89
2023/03/17 14:05:06;;;;;;;;;;;;;;;8.99;57.09;101633.27;107159;1259;124402;-89
2023/03/17 14:08:01;;;;;;;;;;;;;;;9.04;57.13;101625.09;107400;1256;72377;-88
2023/03/17 14:10:40;;;;;;;;;;;;;;;9.11;57.09;101621.89;107343;1256;60389;-91
2023/03/17 14:13:41;;;;;;;;;;;;;;;9.16;56.97;101625.81;107381;1255;60376;-92
2023/03/17 14:16:28;;;;;;;;;;;;;;;9.18;56.87;101630.82;107502;1255;73872;-93
2023/03/17 14:19:28;;;;;;;;;;;;;;;9.18;56.66;101627.33;107439;1256;67069;-90